createdAt,value
2023-04-07T00:00:26.260Z,76.42
2023-04-07T00:03:09.133Z,74.25
2023-04-07T00:05:45.099Z,73.08
2023-04-07T00:08:27.322Z,73.88
2023-04-07T00:11:00.316Z,74.83
2023-04-07T00:13:35.556Z,74.96
2023-04-07T00:16:10.454Z,73.01
2023-04-07T00:18:43.496Z,76.66
2023-04-07T00:21:21.291Z,77.17
2023-04-07T00:23:56.480Z,77.73
2023-04-07T00:26:24.570Z,76.11
2023-04-07T00:28:55.050Z,76.83
2023-04-07T00:31:35.783Z,76.83
2023-04-07T00:34:15.806Z,80.10
2023-04-07T00:36:53.534Z,79.11
2023-04-07T00:39:33.566Z,79.57
2023-04-07T00:42:07.943Z,80.34
2023-04-07T00:44:47.389Z,81.20
2023-04-07T00:47:18.065Z,82.07
2023-04-07T00:49:51.379Z,80.17
2023-04-07T00:52:30.072Z,81.87
2023-04-07T00:54:58.088Z,80.70
2023-04-07T00:57:36.881Z,81.60
2023-04-07T01:00:14.878Z,81.99
2023-04-07T01:03:16.377Z,80.74
2023-04-07T01:05:59.200Z,81.66
2023-04-07T01:08:40.162Z,82.73
2023-04-07T01:11:30.010Z,81.82
2023-04-07T01:14:02.925Z,83.94
2023-04-07T01:16:44.671Z,84.25
2023-04-07T01:19:50.367Z,82.48
2023-04-07T01:22:19.563Z,83.04
2023-04-07T01:25:09.272Z,82.78
2023-04-07T01:27:40.223Z,83.42
2023-04-07T01:30:13.270Z,83.37
2023-04-07T01:32:57.532Z,83.20
2023-04-07T01:35:30.979Z,85.17
2023-04-07T01:38:04.541Z,84.82
2023-04-07T01:43:30.255Z,83.72
2023-04-07T01:45:58.954Z,83.43
2023-04-07T01:48:33.209Z,82.79
2023-04-07T01:51:07.211Z,84.59
2023-04-07T01:53:39.270Z,84.15
2023-04-07T01:56:12.168Z,83.52
2023-04-07T01:58:51.893Z,81.94
2023-04-07T02:01:50.099Z,82.03
2023-04-07T02:04:27.655Z,81.36
2023-04-07T02:07:02.288Z,80.85
2023-04-07T02:09:35.362Z,81.06
2023-04-07T02:12:07.951Z,80.76
2023-04-07T02:14:44.437Z,81.05
2023-04-07T02:17:31.364Z,81.99
2023-04-07T02:20:11.623Z,81.38
2023-04-07T02:22:43.998Z,81.65
2023-04-07T02:25:25.469Z,81.48
2023-04-07T02:27:59.500Z,80.57
2023-04-07T02:30:29.998Z,80.85
2023-04-07T02:33:23.011Z,78.81
2023-04-07T02:35:52.870Z,78.40
2023-04-07T02:38:25.933Z,78.86
2023-04-07T02:40:53.932Z,77.36
2023-04-07T02:43:23.237Z,77.74
2023-04-07T02:45:54.193Z,77.91
2023-04-07T02:48:29.022Z,77.93
2023-04-07T02:51:22.044Z,77.95
2023-04-07T02:54:15.211Z,77.34
2023-04-07T02:56:48.323Z,79.30
2023-04-07T02:59:16.313Z,77.92
2023-04-07T03:01:50.728Z,77.50
2023-04-07T03:04:24.081Z,79.56
2023-04-07T03:07:23.236Z,80.04
2023-04-07T03:09:54.013Z,81.09
2023-04-07T03:12:22.103Z,80.90
2023-04-07T03:14:54.901Z,79.64
2023-04-07T03:17:40.445Z,78.94
2023-04-07T03:20:34.907Z,79.26
2023-04-07T03:23:06.302Z,81.40
2023-04-07T03:25:39.175Z,81.34
2023-04-07T03:28:12.366Z,81.69
2023-04-07T03:30:46.827Z,82.58
2023-04-07T03:33:18.604Z,82.72
2023-04-07T03:35:46.658Z,83.75
2023-04-07T03:38:20.238Z,84.21
2023-04-07T03:40:48.200Z,82.77
2023-04-07T03:43:21.358Z,82.41
2023-04-07T03:45:54.927Z,82.80
2023-04-07T03:48:23.075Z,82.63
2023-04-07T03:50:55.325Z,83.06
2023-04-07T03:53:48.466Z,81.60
2023-04-07T03:56:32.140Z,81.88
2023-04-07T03:59:00.131Z,81.68
2023-04-07T04:01:31.057Z,82.17
2023-04-07T04:04:02.401Z,82.16
2023-04-07T04:06:35.487Z,82.92
2023-04-07T04:09:08.585Z,83.02
2023-04-07T04:11:43.621Z,84.07
2023-04-07T04:14:26.112Z,83.39
2023-04-07T04:17:08.556Z,84.43
2023-04-07T04:19:44.400Z,84.91
2023-04-07T04:22:16.206Z,85.56
2023-04-07T04:24:49.372Z,85.72
2023-04-07T04:27:21.551Z,87.30
2023-04-07T04:30:00.716Z,87.11
2023-04-07T04:32:32.198Z,88.82
2023-04-07T04:35:05.362Z,88.02
2023-04-07T04:37:36.411Z,88.28
2023-04-07T04:40:13.784Z,89.09
2023-04-07T04:42:50.960Z,89.24
2023-04-07T04:45:46.940Z,88.94
2023-04-07T04:48:16.828Z,90.29
2023-04-07T04:50:45.199Z,89.11
2023-04-07T04:53:18.641Z,89.65
2023-04-07T04:55:53.410Z,90.50
2023-04-07T04:58:27.537Z,89.50
2023-04-07T05:00:59.339Z,89.49
2023-04-07T05:03:34.424Z,90.55
2023-04-07T05:06:05.618Z,89.46
2023-04-07T05:08:45.949Z,89.90
2023-04-07T05:11:28.720Z,85.95
2023-04-07T05:14:09.532Z,86.12
2023-04-07T05:17:01.412Z,86.22
2023-04-07T05:19:35.762Z,84.11
2023-04-07T05:22:07.383Z,84.67
2023-04-07T05:24:49.795Z,84.39
2023-04-07T05:27:22.970Z,84.58
2023-04-07T05:29:55.841Z,85.62
2023-04-07T05:32:24.982Z,85.00
2023-04-07T05:35:00.654Z,85.02
2023-04-07T05:37:34.290Z,84.44
2023-04-07T05:43:10.388Z,82.05
2023-04-07T05:45:39.647Z,82.63
2023-04-07T05:48:15.612Z,82.40
2023-04-07T05:50:44.584Z,83.28
2023-04-07T05:53:28.142Z,83.37
2023-04-07T05:56:00.997Z,85.83
2023-04-07T05:58:36.694Z,82.48
2023-04-07T06:01:04.693Z,82.54
2023-04-07T06:03:37.903Z,83.90
2023-04-07T06:06:11.349Z,84.88
2023-04-07T06:08:51.852Z,85.74
2023-04-07T06:11:33.511Z,85.27
2023-04-07T06:14:15.787Z,84.76
2023-04-07T06:16:48.899Z,85.36
2023-04-07T06:19:24.651Z,85.58
2023-04-07T06:21:58.889Z,83.43
2023-04-07T06:24:39.030Z,82.60
2023-04-07T06:27:14.548Z,81.81
2023-04-07T06:29:50.324Z,82.74
2023-04-07T06:32:24.681Z,83.70
2023-04-07T06:34:57.411Z,83.92
2023-04-07T06:37:30.493Z,82.51
2023-04-07T06:40:12.339Z,84.45
2023-04-07T06:42:48.124Z,83.84
2023-04-07T06:45:20.852Z,81.17
2023-04-07T06:47:57.640Z,81.28
2023-04-07T06:50:31.476Z,82.26
2023-04-07T06:53:07.190Z,83.42
2023-04-07T06:55:38.591Z,82.98
2023-04-07T06:58:17.331Z,83.31
2023-04-07T07:00:49.948Z,82.57
2023-04-07T07:03:20.199Z,80.45
2023-04-07T07:05:54.117Z,77.66
2023-04-07T07:08:36.048Z,76.98
2023-04-07T07:11:04.078Z,76.68
2023-04-07T07:13:37.166Z,76.59
2023-04-07T07:16:25.405Z,75.25
2023-04-07T07:18:58.355Z,74.27
2023-04-07T07:21:33.576Z,75.01
2023-04-07T07:24:06.949Z,74.71
2023-04-07T07:26:47.925Z,74.10
2023-04-07T07:29:29.446Z,74.65
2023-04-07T07:32:11.302Z,72.77
2023-04-07T07:34:44.452Z,71.65
2023-04-07T07:37:20.248Z,71.13
2023-04-07T07:39:53.092Z,72.28
2023-04-07T07:42:46.172Z,71.74
2023-04-07T07:45:19.143Z,73.46
2023-04-07T07:47:58.754Z,70.47
2023-04-07T07:53:15.230Z,67.75
2023-04-07T07:55:48.667Z,68.21
2023-04-07T07:58:17.241Z,66.73
2023-04-07T08:00:59.111Z,67.18
2023-04-07T08:03:31.951Z,66.14
2023-04-07T08:06:15.252Z,66.63
2023-04-07T08:08:46.563Z,66.03
2023-04-07T08:11:18.426Z,64.20
2023-04-07T08:13:59.109Z,65.46
2023-04-07T08:16:29.386Z,64.46
2023-04-07T08:18:57.868Z,65.79
2023-04-07T08:21:25.826Z,65.87
2023-04-07T08:23:58.522Z,65.78
2023-04-07T08:26:37.193Z,64.38
2023-04-07T08:29:11.040Z,63.77
2023-04-07T08:31:43.945Z,64.15
2023-04-07T08:34:17.908Z,62.73
2023-04-07T08:37:11.047Z,62.92
2023-04-07T08:39:58.996Z,62.50
2023-04-07T08:42:29.512Z,60.28
2023-04-07T08:45:07.712Z,59.92
2023-04-07T08:50:31.271Z,61.24
2023-04-07T08:53:07.433Z,60.54
2023-04-07T08:55:49.581Z,61.17
2023-04-07T08:58:35.143Z,61.99
2023-04-07T09:01:04.215Z,60.37
2023-04-07T09:03:34.022Z,60.76
2023-04-07T09:06:02.897Z,60.15
2023-04-07T09:08:30.985Z,61.06
2023-04-07T09:10:59.142Z,60.33
2023-04-07T09:13:27.339Z,60.46
2023-04-07T09:15:55.366Z,60.26
2023-04-07T09:18:23.297Z,58.38
2023-04-07T09:21:04.004Z,57.40
2023-04-07T09:23:33.485Z,60.44
2023-04-07T09:26:03.491Z,59.98
2023-04-07T09:28:44.219Z,63.71
2023-04-07T09:31:12.493Z,66.91
2023-04-07T09:33:40.709Z,66.82
2023-04-07T09:36:09.294Z,68.44
2023-04-07T09:38:39.070Z,70.14
2023-04-07T09:41:17.770Z,68.55
2023-04-07T09:43:47.004Z,68.13
2023-04-07T09:46:19.570Z,68.22
2023-04-07T09:48:48.076Z,66.90
2023-04-07T09:51:19.728Z,65.58
2023-04-07T09:53:49.774Z,67.04
2023-04-07T09:56:21.275Z,65.47
2023-04-07T09:58:49.932Z,66.03
2023-04-07T10:01:20.736Z,66.27
2023-04-07T10:03:52.217Z,65.09
2023-04-07T10:06:20.352Z,63.94
2023-04-07T10:08:48.541Z,63.71
2023-04-07T10:11:17.141Z,63.37
2023-04-07T10:13:45.192Z,62.86
2023-04-07T10:16:13.297Z,62.96
2023-04-07T10:18:41.326Z,63.22
2023-04-07T10:21:10.552Z,62.99
2023-04-07T10:23:42.322Z,63.08
2023-04-07T10:26:10.427Z,60.69
2023-04-07T10:28:39.886Z,60.15
2023-04-07T10:31:08.024Z,62.18
2023-04-07T10:33:53.136Z,61.13
2023-04-07T10:36:22.363Z,61.38
2023-04-07T10:39:08.744Z,60.60
2023-04-07T10:41:40.690Z,58.36
2023-04-07T10:44:09.914Z,58.64
2023-04-07T10:46:58.500Z,58.91
2023-04-07T10:49:27.018Z,54.89
2023-04-07T10:52:13.487Z,55.16
2023-04-07T10:54:42.096Z,53.45
2023-04-07T10:57:14.853Z,53.80
2023-04-07T11:00:14.002Z,51.86
2023-04-07T11:02:42.323Z,50.71
2023-04-07T11:05:22.794Z,51.80
2023-04-07T11:07:52.731Z,50.84
2023-04-07T11:10:21.760Z,50.57
2023-04-07T11:13:06.243Z,51.74
2023-04-07T11:15:37.051Z,48.59
2023-04-07T11:18:20.720Z,49.63
2023-04-07T11:20:56.084Z,47.14
2023-04-07T11:23:25.439Z,50.88
2023-04-07T11:25:54.598Z,49.17
2023-04-07T11:28:22.656Z,50.04
2023-04-07T11:30:55.284Z,48.84
2023-04-07T11:33:25.477Z,48.02
2023-04-07T11:36:01.045Z,47.59
2023-04-07T11:38:30.449Z,49.60
2023-04-07T11:40:58.562Z,49.60
2023-04-07T11:43:28.519Z,48.13
2023-04-07T11:46:10.046Z,49.79
2023-04-07T11:48:38.864Z,50.95
2023-04-07T11:51:07.050Z,51.16
2023-04-07T11:53:37.282Z,52.01
2023-04-07T11:56:08.214Z,51.80
2023-04-07T11:58:36.296Z,51.53
2023-04-07T12:01:10.013Z,51.31
2023-04-07T12:03:38.442Z,51.21
2023-04-07T12:06:06.877Z,50.44
2023-04-07T12:08:45.342Z,50.63
2023-04-07T12:11:13.827Z,51.80
2023-04-07T12:13:42.811Z,50.20
2023-04-07T12:16:11.168Z,51.02
2023-04-07T12:18:39.276Z,51.32
2023-04-07T12:21:07.341Z,51.53
2023-04-07T12:23:35.459Z,50.37
2023-04-07T12:26:03.942Z,52.13
2023-04-07T12:28:32.018Z,50.76
2023-04-07T12:31:00.280Z,51.42
2023-04-07T12:33:28.320Z,51.68
2023-04-07T12:35:56.521Z,51.39
2023-04-07T12:38:24.674Z,51.07
2023-04-07T12:40:53.129Z,50.96
2023-04-07T12:43:21.599Z,50.66
2023-04-07T12:45:49.714Z,49.85
2023-04-07T12:48:18.207Z,50.90
2023-04-07T12:50:46.283Z,50.10
2023-04-07T12:53:14.872Z,51.78
2023-04-07T12:55:43.498Z,52.86
2023-04-07T12:58:11.664Z,53.55
2023-04-07T13:00:39.731Z,53.24
2023-04-07T13:03:08.762Z,54.64
2023-04-07T13:05:37.228Z,56.31
2023-04-07T13:08:06.214Z,56.03
2023-04-07T13:10:34.441Z,56.81
2023-04-07T13:13:02.605Z,56.86
2023-04-07T13:15:30.752Z,56.45
2023-04-07T13:17:59.048Z,54.84
2023-04-07T13:20:29.475Z,54.97
2023-04-07T13:23:07.822Z,55.18
2023-04-07T13:25:38.961Z,56.85
2023-04-07T13:28:07.256Z,55.33
2023-04-07T13:30:35.693Z,54.57
2023-04-07T13:33:03.882Z,55.99
2023-04-07T13:35:36.918Z,56.21
2023-04-07T13:38:05.287Z,56.42
2023-04-07T13:40:33.394Z,56.84
2023-04-07T13:43:02.363Z,56.79
2023-04-07T13:45:30.404Z,55.52
2023-04-07T13:47:58.491Z,54.86
2023-04-07T13:50:26.636Z,53.66
2023-04-07T13:52:54.712Z,53.95
2023-04-07T13:55:22.796Z,53.84
2023-04-07T13:57:50.977Z,54.11
2023-04-07T14:00:19.276Z,53.24
2023-04-07T14:02:49.075Z,53.90
2023-04-07T14:05:17.217Z,53.94
2023-04-07T14:07:45.334Z,53.46
2023-04-07T14:10:13.422Z,53.21
2023-04-07T14:12:41.463Z,53.68
2023-04-07T14:15:10.064Z,54.78
2023-04-07T14:17:39.254Z,52.93
2023-04-07T14:20:08.230Z,51.33
2023-04-07T14:22:36.382Z,52.79
2023-04-07T14:25:05.263Z,50.90
2023-04-07T14:27:33.259Z,50.86
2023-04-07T14:30:01.544Z,51.09
2023-04-07T14:32:30.809Z,50.25
2023-04-07T14:35:00.434Z,50.37
2023-04-07T14:37:29.870Z,50.52
2023-04-07T14:40:02.821Z,49.51
2023-04-07T14:42:31.465Z,50.15
2023-04-07T14:45:00.836Z,51.73
2023-04-07T14:47:29.275Z,52.09
2023-04-07T14:49:57.433Z,52.15
2023-04-07T14:52:25.821Z,52.86
2023-04-07T14:54:54.046Z,54.14
2023-04-07T14:57:22.211Z,54.09
2023-04-07T14:59:50.221Z,54.51
2023-04-07T15:02:18.518Z,54.74
2023-04-07T15:04:46.692Z,54.67
2023-04-07T15:07:14.801Z,53.68
2023-04-07T15:09:42.999Z,53.39
2023-04-07T15:12:11.037Z,54.45
2023-04-07T15:14:39.105Z,55.53
2023-04-07T15:17:07.168Z,55.61
2023-04-07T15:19:35.135Z,55.21
2023-04-07T15:22:03.232Z,55.67
2023-04-07T15:24:31.431Z,57.14
2023-04-07T15:26:59.537Z,56.82
2023-04-07T15:29:27.521Z,57.86
2023-04-07T15:31:56.503Z,56.07
2023-04-07T15:34:24.690Z,56.95
2023-04-07T15:36:52.943Z,57.95
2023-04-07T15:39:20.893Z,59.12
2023-04-07T15:41:48.909Z,60.06
2023-04-07T15:44:20.563Z,60.65
2023-04-07T15:46:48.814Z,61.06
2023-04-07T15:49:21.731Z,61.27
2023-04-07T15:51:50.730Z,61.16
2023-04-07T15:54:18.890Z,61.79
2023-04-07T15:56:46.996Z,60.10
2023-04-07T15:59:15.076Z,60.59
2023-04-07T16:01:43.199Z,60.41
2023-04-07T16:04:11.303Z,60.49
2023-04-07T16:06:40.201Z,60.87
2023-04-07T16:09:09.436Z,61.24
2023-04-07T16:11:37.591Z,61.28
2023-04-07T16:14:06.143Z,61.35
2023-04-07T16:16:37.402Z,61.30
2023-04-07T16:19:05.518Z,62.39
2023-04-07T16:21:33.699Z,63.12
2023-04-07T16:24:01.953Z,62.86
2023-04-07T16:26:30.104Z,62.93
2023-04-07T16:28:58.028Z,63.35
2023-04-07T16:31:26.090Z,62.48
2023-04-07T16:33:54.169Z,63.34
2023-04-07T16:36:22.159Z,63.99
2023-04-07T16:38:52.396Z,63.58
2023-04-07T16:41:20.438Z,63.78
2023-04-07T16:43:48.723Z,63.65
2023-04-07T16:46:17.074Z,64.20
2023-04-07T16:48:45.147Z,63.32
2023-04-07T16:51:20.862Z,63.88
2023-04-07T16:53:49.202Z,65.17
2023-04-07T16:56:24.210Z,64.82
2023-04-07T16:58:52.603Z,65.58
2023-04-07T17:01:20.789Z,65.59
2023-04-07T17:03:52.768Z,65.81
2023-04-07T17:06:21.271Z,66.39
2023-04-07T17:08:50.266Z,66.96
2023-04-07T17:11:18.264Z,66.66
2023-04-07T17:13:46.528Z,67.29
2023-04-07T17:16:17.798Z,68.08
2023-04-07T17:18:45.909Z,68.49
2023-04-07T17:21:16.575Z,68.35
2023-04-07T17:23:44.939Z,68.62
2023-04-07T17:26:13.031Z,69.30
2023-04-07T17:28:41.070Z,69.28
2023-04-07T17:31:09.208Z,69.28
2023-04-07T17:33:37.254Z,69.63
2023-04-07T17:36:05.540Z,70.50
2023-04-07T17:38:33.639Z,71.09
2023-04-07T17:41:03.066Z,70.91
2023-04-07T17:43:31.138Z,72.05
2023-04-07T17:45:59.210Z,72.27
2023-04-07T17:48:27.925Z,72.58
2023-04-07T17:50:55.906Z,73.05
2023-04-07T17:53:23.951Z,74.13
2023-04-07T17:55:52.177Z,73.56
2023-04-07T17:58:22.427Z,73.00
2023-04-07T18:00:51.886Z,74.05
2023-04-07T18:03:21.103Z,74.81
2023-04-07T18:05:50.487Z,75.21
2023-04-07T18:08:18.478Z,75.29
2023-04-07T18:10:46.565Z,75.78
2023-04-07T18:13:14.820Z,75.59
2023-04-07T18:15:43.011Z,76.24
2023-04-07T18:18:10.995Z,76.67
2023-04-07T18:20:39.217Z,76.82
2023-04-07T18:23:07.507Z,76.92
2023-04-07T18:25:35.756Z,76.88
2023-04-07T18:28:03.986Z,77.98
2023-04-07T18:30:32.115Z,77.60
2023-04-07T18:33:00.154Z,78.78
2023-04-07T18:35:28.600Z,78.67
2023-04-07T18:37:56.789Z,78.72
2023-04-07T18:40:25.044Z,79.28
2023-04-07T18:42:53.321Z,79.94
2023-04-07T18:45:21.533Z,80.76
2023-04-07T18:47:49.704Z,81.03
2023-04-07T18:50:17.760Z,81.12
2023-04-07T18:52:45.728Z,80.37
2023-04-07T18:55:13.762Z,80.25
2023-04-07T18:57:41.758Z,79.76
2023-04-07T19:00:10.143Z,79.62
2023-04-07T19:02:39.914Z,78.67
2023-04-07T19:05:08.265Z,79.15
2023-04-07T19:07:36.193Z,79.44
2023-04-07T19:10:04.383Z,79.85
2023-04-07T19:12:32.626Z,80.39
2023-04-07T19:15:00.908Z,80.15
2023-04-07T19:17:28.993Z,80.43
2023-04-07T19:19:57.230Z,80.47
2023-04-07T19:22:25.388Z,81.23
2023-04-07T19:24:53.791Z,81.56
2023-04-07T19:27:21.899Z,81.20
2023-04-07T19:29:49.858Z,81.57
2023-04-07T19:32:17.932Z,82.10
2023-04-07T19:34:46.102Z,82.43
2023-04-07T19:37:14.172Z,81.85
2023-04-07T19:39:52.187Z,81.63
2023-04-07T19:42:30.591Z,81.82
2023-04-07T19:45:01.477Z,82.97
2023-04-07T19:47:30.129Z,82.74
2023-04-07T19:49:58.408Z,82.58
2023-04-07T19:52:26.442Z,83.63
2023-04-07T19:54:54.423Z,82.78
2023-04-07T19:57:23.218Z,82.35
2023-04-07T19:59:51.372Z,82.80
2023-04-07T20:02:19.679Z,82.95
2023-04-07T20:04:47.750Z,82.44
2023-04-07T20:07:15.780Z,82.64
2023-04-07T20:09:43.964Z,82.27
2023-04-07T20:12:12.328Z,82.55
2023-04-07T20:14:40.514Z,83.43
2023-04-07T20:17:09.142Z,83.37
2023-04-07T20:19:38.192Z,84.11
2023-04-07T20:22:06.335Z,84.29
2023-04-07T20:24:37.105Z,85.42
2023-04-07T20:27:05.172Z,85.91
2023-04-07T20:29:33.373Z,86.47
2023-04-07T20:32:01.486Z,87.23
2023-04-07T20:34:29.487Z,87.52
2023-04-07T20:36:57.924Z,87.40
2023-04-07T20:39:25.937Z,88.03
2023-04-07T20:41:53.918Z,88.18
2023-04-07T20:44:22.827Z,89.07
2023-04-07T20:46:50.861Z,89.04
2023-04-07T20:49:18.959Z,89.23
2023-04-07T20:51:46.975Z,88.56
2023-04-07T20:54:15.338Z,88.77
2023-04-07T20:56:44.516Z,88.52
2023-04-07T20:59:12.579Z,89.19
2023-04-07T21:01:40.772Z,90.02
2023-04-07T21:04:09.105Z,88.76
2023-04-07T21:06:37.385Z,89.68
2023-04-07T21:09:07.067Z,90.27
2023-04-07T21:11:35.123Z,90.57
2023-04-07T21:14:03.157Z,91.45
2023-04-07T21:16:31.501Z,91.30
2023-04-07T21:18:59.551Z,91.52
2023-04-07T21:21:28.003Z,91.58
2023-04-07T21:23:56.036Z,91.89
2023-04-07T21:26:24.123Z,92.02
2023-04-07T21:28:55.432Z,92.74
2023-04-07T21:31:24.901Z,92.92
2023-04-07T21:33:54.174Z,92.27
2023-04-07T21:36:22.694Z,93.08
2023-04-07T21:38:53.730Z,92.83
2023-04-07T21:41:22.495Z,93.23
2023-04-07T21:43:50.595Z,93.75
2023-04-07T21:46:18.970Z,93.55
2023-04-07T21:48:47.232Z,94.33
2023-04-07T21:51:15.573Z,94.04
2023-04-07T21:53:43.620Z,93.90
2023-04-07T21:56:12.345Z,94.18
2023-04-07T21:58:40.547Z,93.40
2023-04-07T22:01:08.748Z,93.02
2023-04-07T22:03:36.926Z,93.14
2023-04-07T22:06:05.148Z,93.43
2023-04-07T22:08:33.124Z,92.64
2023-04-07T22:11:01.263Z,92.74
2023-04-07T22:13:29.446Z,92.80
2023-04-07T22:15:57.736Z,92.89
2023-04-07T22:18:25.779Z,93.14
2023-04-07T22:20:53.913Z,93.71
2023-04-07T22:23:22.014Z,93.85
2023-04-07T22:25:50.676Z,94.20
2023-04-07T22:28:18.718Z,94.85
2023-04-07T22:30:46.734Z,94.62
2023-04-07T22:33:14.848Z,94.58
2023-04-07T22:35:42.875Z,93.74
2023-04-07T22:38:10.977Z,92.37
2023-04-07T22:40:39.015Z,91.75
2023-04-07T22:43:07.039Z,91.04
2023-04-07T22:45:35.101Z,90.92
2023-04-07T22:48:03.869Z,90.24
2023-04-07T22:50:31.957Z,91.39
2023-04-07T22:52:59.989Z,91.28
2023-04-07T22:55:28.728Z,91.48
2023-04-07T22:57:56.787Z,90.72
2023-04-07T23:00:24.980Z,91.05
2023-04-07T23:02:53.220Z,91.02
2023-04-07T23:05:21.503Z,91.37
2023-04-07T23:07:49.671Z,91.20
2023-04-07T23:10:17.706Z,90.27
2023-04-07T23:12:45.757Z,90.39
2023-04-07T23:15:13.906Z,91.54
2023-04-07T23:17:42.181Z,91.06
2023-04-07T23:20:10.989Z,90.70
2023-04-07T23:22:39.478Z,90.64
2023-04-07T23:25:08.325Z,90.74
2023-04-07T23:27:36.441Z,90.19
2023-04-07T23:30:05.548Z,90.36
2023-04-07T23:32:33.514Z,89.97
2023-04-07T23:35:01.545Z,90.30
2023-04-07T23:37:29.587Z,89.59
2023-04-07T23:39:57.667Z,89.64
2023-04-07T23:42:25.717Z,89.80
2023-04-07T23:44:53.712Z,89.76
2023-04-07T23:47:22.364Z,90.02
2023-04-07T23:49:50.432Z,89.77
2023-04-07T23:52:18.442Z,89.51
2023-04-07T23:54:46.377Z,89.44
2023-04-07T23:57:14.389Z,89.85
2023-04-07T23:59:42.460Z,89.84
